Speed, North Carolina
Current Conditions -  °F | °C
As of 1:15 PM on Tuesday 21 Oct 2014 (Local Time) from KETC Reporting Station
Clear Clear  
Wind Chill: 73°   Ceiling: Unl
Heat Index: 73°   Visibility: 10mi
Dew Point: 53°   Wind: 5mph
Humidity: 48%   Direction: 210°SSW
Pressure: 29.87"   Gusts: NA
Location:  35.97°N, 77.45°W
Report Text: KETC 211715Z AUTO 21004KT 10SM CLR 23/11 A2987 RMK AO2 T02280114
Loading
Personal Weather Stations






























Interactive Weather Map
Tropical Storm Tracking
New forecast layout! Learn more

10-Day Weather Forecast

Advertisements
Track Severe Weather on mobile